Terminal Aerodrome Forecast
Issued by NWS

Home | Current Version | Previous Version | Text Only | Print | Product List | Glossary On
Versions: 1 2 3 4 5 6 7 8 9 10 11 12 13 14 15 16 17 18 19 20 21 22 23 24 25 26
223
FTUS43 KGRR 060222 AAA
TAFAZO
TAF AMD
KAZO 060222Z 0602/0624 27005KT P6SM BKN120
     FM060600 21007KT P6SM SCT030 OVC100
     FM061400 23010KT P6SM -SN OVC030=

USA.gov is the U.S. government's official web portal to all federal, state and local government web resources and services.